createdAt,value
2023-05-07T00:03:28.960Z,14.90
2023-05-07T00:08:31.537Z,14.80
2023-05-07T00:13:36.530Z,14.70
2023-05-07T00:18:38.989Z,14.50
2023-05-07T00:23:41.175Z,14.40
2023-05-07T00:28:43.546Z,14.40
2023-05-07T00:33:45.811Z,14.30
2023-05-07T00:38:48.011Z,14.20
2023-05-07T00:43:52.607Z,14.20
2023-05-07T00:48:55.383Z,14.10
2023-05-07T00:53:57.676Z,14.20
2023-05-07T00:59:00.192Z,14.20
2023-05-07T01:04:02.798Z,14.20
2023-05-07T01:09:06.061Z,14.00
2023-05-07T01:14:09.958Z,13.90
2023-05-07T01:19:15.480Z,13.90
2023-05-07T01:24:19.024Z,14.00
2023-05-07T01:29:21.498Z,13.90
2023-05-07T01:34:26.988Z,13.90
2023-05-07T01:39:31.294Z,13.80
2023-05-07T01:44:33.841Z,13.80
2023-05-07T01:49:36.202Z,13.60
2023-05-07T01:54:38.483Z,13.60
2023-05-07T01:59:41.123Z,13.70
2023-05-07T02:04:43.368Z,13.60
2023-05-07T02:09:46.037Z,13.60
2023-05-07T02:14:48.692Z,13.60
2023-05-07T02:19:50.961Z,13.50
2023-05-07T02:24:53.197Z,13.50
2023-05-07T02:29:55.466Z,13.60
2023-05-07T02:34:57.723Z,13.60
2023-05-07T02:40:00.046Z,13.40
2023-05-07T02:45:02.377Z,13.50
2023-05-07T02:50:06.935Z,13.50
2023-05-07T02:55:09.753Z,13.40
2023-05-07T03:00:15.334Z,13.40
2023-05-07T03:05:24.369Z,13.30
2023-05-07T03:10:26.552Z,13.10
2023-05-07T03:15:28.832Z,13.10
2023-05-07T03:20:31.238Z,13.10
2023-05-07T03:25:33.933Z,13.20
2023-05-07T03:30:36.365Z,13.40
2023-05-07T03:35:38.779Z,13.30
2023-05-07T03:40:41.768Z,13.40
2023-05-07T03:45:44.174Z,13.60
2023-05-07T03:50:51.348Z,13.60
2023-05-07T03:55:54.843Z,13.50
2023-05-07T04:00:57.303Z,13.60
2023-05-07T04:06:03.453Z,13.70
2023-05-07T04:11:07.852Z,13.70
2023-05-07T04:16:12.407Z,13.90
2023-05-07T04:21:16.640Z,14.00
2023-05-07T04:26:19.482Z,14.00
2023-05-07T04:31:23.007Z,14.10
2023-05-07T04:36:30.262Z,14.10
2023-05-07T04:41:37.874Z,14.30
2023-05-07T04:46:42.229Z,14.40
2023-05-07T04:51:44.943Z,14.50
2023-05-07T04:56:48.482Z,14.60
2023-05-07T05:01:51.153Z,14.70
2023-05-07T05:06:54.108Z,14.70
2023-05-07T05:11:57.280Z,14.80
2023-05-07T05:16:59.809Z,15.10
2023-05-07T05:22:02.413Z,15.20
2023-05-07T05:27:06.107Z,15.40
2023-05-07T05:32:08.443Z,15.70
2023-05-07T05:37:10.839Z,15.80
2023-05-07T05:42:13.703Z,15.90
2023-05-07T05:47:16.294Z,15.90
2023-05-07T05:52:18.961Z,16.20
2023-05-07T05:57:22.384Z,16.30
2023-05-07T06:02:25.048Z,16.50
2023-05-07T06:07:28.131Z,16.40
2023-05-07T06:12:31.000Z,16.50
2023-05-07T06:17:33.481Z,16.90
2023-05-07T06:22:35.834Z,17.20
2023-05-07T06:27:40.671Z,17.40
2023-05-07T06:32:43.187Z,17.30
2023-05-07T06:37:47.391Z,17.60
2023-05-07T06:42:54.897Z,17.70
2023-05-07T06:48:05.763Z,18.00
2023-05-07T06:53:14.782Z,19.30
2023-05-07T06:58:17.706Z,20.40
2023-05-07T07:03:20.156Z,22.70
2023-05-07T07:08:23.669Z,27.00
2023-05-07T07:13:27.522Z,29.00
2023-05-07T07:18:30.110Z,28.60
2023-05-07T07:23:34.695Z,26.90
2023-05-07T07:28:45.314Z,25.80
2023-05-07T07:33:53.036Z,24.60
2023-05-07T07:38:56.136Z,23.60
2023-05-07T07:43:58.613Z,23.10
2023-05-07T07:49:01.160Z,22.90
2023-05-07T07:54:04.190Z,22.20
2023-05-07T07:59:09.554Z,21.60
2023-05-07T08:04:14.969Z,21.20
2023-05-07T08:09:18.565Z,21.20
2023-05-07T08:14:22.680Z,21.10
2023-05-07T08:19:24.987Z,20.70
2023-05-07T08:24:27.617Z,20.40
2023-05-07T08:29:29.961Z,20.10
2023-05-07T08:34:32.301Z,19.90
2023-05-07T08:39:37.828Z,19.70
2023-05-07T08:44:48.424Z,19.30
2023-05-07T08:49:52.932Z,19.20
2023-05-07T08:54:55.993Z,18.80
2023-05-07T08:59:59.916Z,18.70
2023-05-07T09:05:02.264Z,18.60
2023-05-07T09:10:05.661Z,18.60
2023-05-07T09:15:10.576Z,18.50
2023-05-07T09:20:13.711Z,18.40
2023-05-07T09:25:16.576Z,18.40
2023-05-07T09:30:18.894Z,18.20
2023-05-07T09:35:22.836Z,18.20
2023-05-07T09:40:32.090Z,17.80
2023-05-07T09:45:39.535Z,17.70
2023-05-07T09:50:50.344Z,17.50
2023-05-07T09:55:55.738Z,17.30
2023-05-07T10:00:58.665Z,17.20
2023-05-07T10:06:02.189Z,17.10
2023-05-07T10:11:07.044Z,17.10
2023-05-07T10:16:10.025Z,16.90
2023-05-07T10:26:31.053Z,16.80
2023-05-07T10:36:59.380Z,16.80
2023-05-07T10:42:17.740Z,16.70
2023-05-07T10:47:25.722Z,16.40
2023-05-07T10:52:32.670Z,16.20
2023-05-07T10:57:55.519Z,16.20
2023-05-07T11:08:12.874Z,16.30
2023-05-07T11:13:46.737Z,16.60
2023-05-07T11:18:58.337Z,16.70
2023-05-07T11:24:10.293Z,16.40
2023-05-07T11:29:26.910Z,16.30
2023-05-07T11:34:34.931Z,16.00
2023-05-07T11:39:37.770Z,16.00
2023-05-07T11:44:45.237Z,15.70
2023-05-07T11:49:52.296Z,15.60
2023-05-07T11:54:57.168Z,15.60
2023-05-07T12:00:02.853Z,15.70
2023-05-07T12:05:24.723Z,15.70
2023-05-07T12:10:27.134Z,15.60
2023-05-07T12:15:29.325Z,15.60
2023-05-07T12:20:31.690Z,15.70
2023-05-07T12:25:39.206Z,15.90
2023-05-07T12:30:42.247Z,16.10
2023-05-07T12:35:45.220Z,16.00
2023-05-07T12:40:51.885Z,16.20
2023-05-07T12:45:56.769Z,16.30
2023-05-07T12:51:01.796Z,16.10
2023-05-07T12:56:06.999Z,16.00
2023-05-07T13:01:11.178Z,15.90
2023-05-07T13:06:13.919Z,16.20
2023-05-07T13:11:16.642Z,16.40
2023-05-07T13:21:24.172Z,16.30
2023-05-07T13:26:27.392Z,16.00
2023-05-07T13:31:29.654Z,15.90
2023-05-07T13:36:34.118Z,15.80
2023-05-07T13:41:36.336Z,15.70
2023-05-07T13:46:38.558Z,15.60
2023-05-07T13:51:40.820Z,15.60
2023-05-07T13:56:44.065Z,15.50
2023-05-07T14:01:46.443Z,15.40
2023-05-07T14:06:48.670Z,15.30
2023-05-07T14:11:52.387Z,15.30
2023-05-07T14:16:54.647Z,15.20
2023-05-07T14:21:59.240Z,15.20
2023-05-07T14:27:01.763Z,15.10
2023-05-07T14:32:04.545Z,15.10
2023-05-07T14:37:06.744Z,15.20
2023-05-07T14:42:08.983Z,15.00
2023-05-07T14:47:11.266Z,15.00
2023-05-07T14:52:13.783Z,14.80
2023-05-07T14:57:19.468Z,15.00
2023-05-07T15:02:21.989Z,14.80
2023-05-07T15:07:24.267Z,14.70
2023-05-07T15:12:27.408Z,14.60
2023-05-07T15:17:29.684Z,14.50
2023-05-07T15:22:32.387Z,14.40
2023-05-07T15:27:34.655Z,14.40
2023-05-07T15:32:37.221Z,14.20
2023-05-07T15:37:39.635Z,14.30
2023-05-07T15:42:41.843Z,14.30
2023-05-07T15:47:44.120Z,14.30
2023-05-07T15:52:47.599Z,14.20
2023-05-07T15:57:50.319Z,14.10
2023-05-07T16:02:52.965Z,13.70
2023-05-07T16:07:55.981Z,13.80
2023-05-07T16:12:58.650Z,13.80
2023-05-07T16:18:01.058Z,13.60
2023-05-07T16:23:03.817Z,13.40
2023-05-07T16:28:06.302Z,13.30
2023-05-07T16:33:08.569Z,13.30
2023-05-07T16:38:11.702Z,13.40
2023-05-07T16:43:13.989Z,13.40
2023-05-07T16:48:16.396Z,13.40
2023-05-07T16:53:18.684Z,13.50
2023-05-07T16:58:21.265Z,13.60
2023-05-07T17:03:24.008Z,13.50
2023-05-07T17:08:26.375Z,13.40
2023-05-07T17:13:29.121Z,13.10
2023-05-07T17:18:31.401Z,13.10
2023-05-07T17:23:33.598Z,13.20
2023-05-07T17:28:35.925Z,13.30
2023-05-07T17:33:38.268Z,13.30
2023-05-07T17:38:40.705Z,13.30
2023-05-07T17:43:42.966Z,13.30
2023-05-07T17:48:45.252Z,13.20
2023-05-07T17:53:47.488Z,13.20
2023-05-07T18:03:55.969Z,13.40
2023-05-07T18:08:58.370Z,13.30
2023-05-07T18:14:00.894Z,13.40
2023-05-07T18:19:03.123Z,13.30
2023-05-07T18:24:05.598Z,13.20
2023-05-07T18:29:07.789Z,13.30
2023-05-07T18:34:10.553Z,13.50
2023-05-07T18:39:12.800Z,13.60
2023-05-07T18:44:15.544Z,13.70
2023-05-07T18:49:17.931Z,13.80
2023-05-07T18:54:20.148Z,13.70
2023-05-07T18:59:23.122Z,13.80
2023-05-07T19:04:25.568Z,13.70
2023-05-07T19:09:27.871Z,13.60
2023-05-07T19:14:30.201Z,13.40
2023-05-07T19:19:32.376Z,13.20
2023-05-07T19:24:34.616Z,13.10
2023-05-07T19:29:36.845Z,12.90
2023-05-07T19:34:39.045Z,12.90
2023-05-07T19:39:41.364Z,12.80
2023-05-07T19:44:43.757Z,12.90
2023-05-07T19:49:46.426Z,13.00
2023-05-07T19:54:48.790Z,13.00
2023-05-07T19:59:51.650Z,13.10
2023-05-07T20:04:55.322Z,13.00
2023-05-07T20:09:57.508Z,13.10
2023-05-07T20:14:59.753Z,13.20
2023-05-07T20:20:02.001Z,13.30
2023-05-07T20:25:06.241Z,13.50
2023-05-07T20:30:09.044Z,13.50
2023-05-07T20:35:11.428Z,13.50
2023-05-07T20:40:14.402Z,13.60
2023-05-07T20:45:17.487Z,13.70
2023-05-07T20:50:22.087Z,13.70
2023-05-07T20:55:24.371Z,13.70
2023-05-07T21:00:27.026Z,13.40
2023-05-07T21:05:32.459Z,13.50
2023-05-07T21:10:35.149Z,13.70
2023-05-07T21:15:37.394Z,13.70
2023-05-07T21:20:39.830Z,13.80
2023-05-07T21:25:42.524Z,13.80
2023-05-07T21:30:44.967Z,14.00
2023-05-07T21:35:47.258Z,13.90
2023-05-07T21:40:49.609Z,14.00
2023-05-07T21:45:51.993Z,14.00
2023-05-07T21:51:03.243Z,13.90
2023-05-07T21:56:06.695Z,13.90
2023-05-07T22:01:12.627Z,13.80
2023-05-07T22:06:18.115Z,13.70
2023-05-07T22:11:21.263Z,13.60
2023-05-07T22:16:23.530Z,13.50
2023-05-07T22:21:25.812Z,13.60
2023-05-07T22:26:28.005Z,13.50
2023-05-07T22:31:30.419Z,13.50
2023-05-07T22:36:32.672Z,13.50
2023-05-07T22:41:35.045Z,13.60
2023-05-07T22:46:37.242Z,13.50
2023-05-07T22:51:39.540Z,13.50
2023-05-07T22:56:42.092Z,13.40
2023-05-07T23:01:45.542Z,13.40
2023-05-07T23:06:48.200Z,13.40
2023-05-07T23:11:50.502Z,13.40
2023-05-07T23:16:53.275Z,13.40
2023-05-07T23:21:55.667Z,13.40
2023-05-07T23:26:57.907Z,13.40
2023-05-07T23:32:00.685Z,13.40
2023-05-07T23:37:03.070Z,13.40
2023-05-07T23:42:05.447Z,13.40
2023-05-07T23:47:07.664Z,13.40
2023-05-07T23:52:09.906Z,13.30
2023-05-07T23:57:12.300Z,13.40
